Weather observations for the past three days for
Oscoda, Oscoda-Wurtsmith Airport
Imperial (Metric)
Date Time (edt) Wind (mph) Vis. (mi.) Weather Sky Cond. Temperature (ºF) Relative Humidity Wind Chill (°F) Heat Index (°F) Pressure Precipitation (in)
Air Dwpt 6 hour altimeter (in) sea level (mb) 1 hr 3 hr 6 hr
Max. Min.
04 23:35 NE 8 10.00 Mostly Cloudy BKN110 48.2 46.4 94% 45 29.44 0.0
04 23:15 NE 8 10.00 Mostly Cloudy FEW075 SCT100 BKN120 50 46.4 88% 47 29.44 0.0
04 22:55 E 13 10.00 Light Rain SCT075 BKN090 OVC110 51.8 46.4 82% 29.41 0.0
04 22:35 E 7 10.00 Overcast OVC090 53.6 44.6 72% 29.44 0.0
04 22:15 E 13 G 20 10.00 Overcast OVC090 55.4 41 59% 29.43 0.0
04 21:55 Vrbl 2 10.00 Overcast OVC100 66.2 37.4 35% 29.41 0.0
04 21:35 S 6 10.00 Mostly Cloudy BKN100 68 35.6 30% 29.38 0.0
04 21:15 S 12 10.00 Fair CLR 68 35.6 30% 29.37 0.0
04 21:05 SW 12 0.00 NULL NULL 0 0 0% 29.37 0.0
04 20:35 SW 16 G 20 10.00 Fair CLR 69.8 33.8 27% 29.36 0.0
04 20:15 SW 15 G 24 10.00 Fair CLR 69.8 33.8 27% 29.37 0.0
04 19:55 SW 23 G 30 10.00 Fair and Breezy CLR 71.6 32 78.1 71.2 23% 29.36 0.0
04 19:35 SW 15 G 23 10.00 Fair CLR 71.6 32 23% 29.37 0.0
04 19:15 SW 25 G 36 10.00 Fair and Breezy CLR 73.4 30.2 20% 29.37 0.0
04 18:55 SW 26 G 32 10.00 Fair and Windy CLR 73.4 30.2 20% 29.37 0.0
04 18:35 SW 18 G 31 10.00 Fair CLR 73.4 30.2 20% 29.37 0.0
04 18:15 SW 26 G 35 10.00 Fair and Windy CLR 75.2 30.2 19% 76 29.38 0.0
04 17:55 SW 22 G 26 10.00 Fair and Breezy CLR 75.2 30.2 19% 76 29.37 0.0
04 17:35 SW 30 G 37 10.00 Fair and Windy CLR 75.2 28.4 18% 76 29.37 0.0
04 17:15 SW 31 10.00 Fair and Windy CLR 75.2 28.4 18% 76 29.38 0.0
04 16:55 SW 29 G 37 10.00 Fair and Windy CLR 77 30.2 18% 77 29.38 0.0
04 16:35 SW 30 G 37 10.00 Fair and Windy CLR 77 30.2 18% 77 29.39 0.0
04 16:15 SW 28 G 43 10.00 Fair and Windy CLR 77 30.2 18% 77 29.39 0.0
04 15:55 W 28 G 39 10.00 Fair and Windy CLR 77 32 19% 77 29.39 0.0
04 15:35 W 29 G 39 10.00 Fair and Windy CLR 77 32 19% 77 29.4 0.0
04 15:15 SW 26 G 41 10.00 Fair and Windy CLR 77 32 19% 77 29.4 0.0
04 14:55 SW 25 G 38 10.00 Fair and Breezy CLR 75.2 32 21% 76 29.4 0.0
04 14:35 SW 20 G 36 10.00 Fair CLR 77 33.8 21% 77 29.41 0.0
04 14:15 SW 15 G 23 10.00 Fair CLR 73.4 41 31% 29.42 0.0
04 13:55 S 21 G 29 10.00 Fair and Breezy CLR 71.6 42.8 71.8 47.7 36% 29.42 0.0
04 13:35 S 18 G 25 10.00 Fair CLR 69.8 44.6 40% 29.44 0.0
04 13:15 S 17 G 22 10.00 Fair CLR 69.8 44.6 40% 29.45 0.0
04 12:55 SW 17 G 24 10.00 Fair CLR 69.8 44.6 40% 29.46 0.0
04 12:35 SW 15 G 30 10.00 Fair CLR 69.8 42.8 38% 29.47 0.0
04 12:15 SW 22 G 31 10.00 Fair and Breezy CLR 69.8 42.8 38% 29.48 0.0
04 11:55 SW 16 G 22 10.00 Fair CLR 68 44.6 43% 29.5 0.0
04 11:35 SW 16 G 21 10.00 Fair CLR 66.2 44.6 46% 29.5 0.0
04 11:15 S 15 10.00 Fair CLR 62.6 46.4 56% 29.51 0.0
04 10:55 SW 14 10.00 Fair CLR 62.6 44.6 52% 29.52 0.0
04 10:35 SW 14 10.00 Fair CLR 60.8 44.6 55% 29.52 0.0
04 10:15 S 14 10.00 Fair CLR 59 44.6 59% 29.53 0.0
04 09:55 SW 12 10.00 Fair CLR 57.2 44.6 63% 29.54 0.0
04 09:35 SW 13 10.00 Fair CLR 55.4 44.6 67% 29.54 0.0
04 09:15 SW 15 10.00 Fair CLR 53.6 44.6 72% 29.54 0.0
04 08:55 SW 14 10.00 Fair CLR 51.8 42.8 72% 29.55 0.0
04 08:35 SW 14 10.00 Fair CLR 50 42.8 76% 45 29.56 0.0
04 08:15 SW 15 10.00 Fair CLR 48.2 42.8 82% 43 29.56 0.0
04 07:55 SW 12 10.00 Fair CLR 48.2 42.8 49.5 39.6 82% 44 29.57 0.0
04 07:35 SW 9 10.00 Fair CLR 46.4 42.8 87% 42 29.56 0.0
04 07:15 SW 9 10.00 Fair CLR 44.6 41 87% 40 29.56 0.0
04 06:55 SW 9 10.00 Fair CLR 42.8 41 93% 38 29.56 0.0
04 06:35 SW 9 10.00 Fair CLR 42.8 39.2 87% 38 29.57 0.0
04 06:15 SW 9 10.00 Fair CLR 44.6 41 87% 40 29.57 0.0
04 05:55 SW 7 10.00 Fair CLR 42.8 39.2 87% 39 29.58 0.0
04 05:35 SW 5 10.00 Fair CLR 42.8 39.2 87% 41 29.59 0.0
04 05:15 SW 5 10.00 Fair CLR 42.8 39.2 87% 41 29.59 0.0
04 04:55 SW 7 10.00 Fair CLR 44.6 41 87% 41 29.59 0.0
04 04:35 SW 8 10.00 Fair CLR 44.6 41 87% 41 29.6 0.0
04 04:15 SW 10 10.00 Fair CLR 46.4 41 82% 42 29.6 0.0
04 03:55 SW 12 10.00 Fair CLR 46.4 41 82% 42 29.6 0.0
04 03:35 SW 10 10.00 Fair CLR 46.4 41 82% 42 29.61 0.0
04 03:15 SW 13 10.00 Fair CLR 46.4 41 82% 41 29.61 0.0
04 02:55 SW 12 10.00 Fair CLR 48.2 42.8 82% 44 29.61 0.0
04 02:35 SW 15 G 20 10.00 Fair CLR 48.2 42.8 82% 43 29.61 0.0
04 02:15 SW 12 10.00 Fair CLR 48.2 41 76% 44 29.61 0.0
04 01:55 SW 13 10.00 Fair CLR 48.2 41 56.3 48.2 76% 43 29.61 0.0
04 01:35 SW 16 10.00 Fair CLR 48.2 41 76% 43 29.62 0.0
04 01:15 SW 14 10.00 A Few Clouds FEW075 50 41 71% 45 29.63 0.0
04 00:55 SW 12 10.00 A Few Clouds FEW100 48.2 41 76% 44 29.63 0.0
04 00:35 SW 13 10.00 Light Rain FEW070 BKN100 BKN120 50 41 71% 46 29.63 0.0
04 00:15 SW 15 10.00 Mostly Cloudy BKN100 BKN110 51.8 39.2 62% 29.64 0.0
03 23:55 SW 15 10.00 Mostly Cloudy SCT090 BKN110 51.8 39.2 62% 29.65 0.0
03 23:35 SW 15 10.00 A Few Clouds FEW090 51.8 37.4 58% 29.64 0.0
03 23:15 SW 18 10.00 A Few Clouds FEW110 51.8 37.4 58% 29.64 0.0
03 22:55 SW 14 10.00 Partly Cloudy SCT110 51.8 37.4 58% 29.65 0.0
03 22:35 SW 15 10.00 Fair CLR 53.6 37.4 54% 29.65 0.0
03 22:15 SW 16 10.00 Fair CLR 53.6 39.2 58% 29.66 0.0
03 21:55 SW 14 10.00 A Few Clouds FEW090 53.6 39.2 58% 29.66 0.0
03 21:35 SW 16 10.00 A Few Clouds FEW090 53.6 37.4 54% 29.66 0.0
03 21:15 SW 17 10.00 Fair CLR 53.6 39.2 58% 29.66 0.0
03 20:55 SW 20 G 23 10.00 A Few Clouds FEW100 53.6 39.2 58% 29.65 0.0
03 20:35 SW 16 G 23 10.00 Mostly Cloudy BKN100 55.4 39.2 55% 29.65 0.0
03 20:15 SW 22 G 28 10.00 Partly Cloudy and Breezy SCT100 55.4 39.2 55% 29.65 0.0
03 19:55 SW 21 G 29 10.00 A Few Clouds and Breezy FEW100 55.4 41 61.7 53.1 59% 29.64 0.0
03 19:35 SW 17 G 24 10.00 Partly Cloudy SCT100 55.4 42.8 63% 29.64 0.0
03 19:15 SW 21 G 28 10.00 Mostly Cloudy and Breezy FEW070 BKN100 55.4 42.8 63% 29.65 0.0
03 18:55 SW 21 10.00 Partly Cloudy and Breezy SCT070 SCT100 57.2 42.8 59% 29.65 0.0
03 18:35 SW 14 10.00 Overcast OVC075 57.2 42.8 59% 29.66 0.0
03 18:15 SW 14 10.00 Overcast OVC075 57.2 42.8 59% 29.66 0.0
03 17:55 SW 14 10.00 Overcast OVC085 55.4 42.8 63% 29.67 0.0
03 17:35 S 9 10.00 Overcast SCT055 SCT070 OVC085 55.4 42.8 63% 29.68 0.0
03 17:15 S 6 10.00 Light Rain FEW040 OVC055 55.4 41 59% 29.68 0.0
03 16:55 SW 7 10.00 Overcast FEW055 OVC065 55.4 41 59% 29.69 0.0
03 16:35 SW 7 10.00 Overcast BKN060 OVC075 57.2 39.2 51% 29.69 0.0
03 16:15 W 12 10.00 Overcast SCT065 BKN070 OVC080 55.4 41 59% 29.7 0.0
03 15:55 W 14 10.00 Overcast OVC080 55.4 39.2 55% 29.7 0.0
03 15:35 W 21 G 28 10.00 Overcast and Breezy FEW055 BKN070 OVC080 57.2 41 55% 29.71 0.0
03 15:15 W 18 10.00 Mostly Cloudy SCT060 SCT080 BKN090 59 39.2 48% 29.71 0.0
03 14:55 W 26 G 36 10.00 Overcast and Windy FEW046 BKN070 OVC120 59 39.2 48% 29.71 0.0
03 14:35 SW 25 G 33 10.00 Mostly Cloudy and Breezy BKN075 BKN100 59 41 51% 29.71 0.0
03 14:15 SW 15 10.00 Mostly Cloudy FEW075 BKN110 55.4 41 59% 29.72 0.0
03 13:55 SW 15 G 21 10.00 Mostly Cloudy SCT070 SCT090 BKN110 53.6 41 55.9 39 63% 29.73 0.0
03 13:35 SW 18 G 24 10.00 Light Rain FEW025 SCT049 OVC060 51.8 41 67% 29.73 0.0
03 13:15 SW 16 G 21 10.00 Overcast SCT050 OVC060 51.8 39.2 62% 29.74 0.0
03 12:55 SW 13 10.00 Overcast OVC050 50 39.2 67% 46 29.75 0.0
03 12:35 SW 14 10.00 Light Rain BKN050 OVC060 50 39.2 67% 45 29.75 0.0
03 12:15 SW 17 10.00 Overcast FEW041 BKN050 OVC065 51.8 37.4 58% 29.76 0.0
03 11:55 W 13 G 22 10.00 Overcast FEW039 BKN050 OVC060 53.6 33.8 47% 29.77 0.0
03 11:35 SW 15 G 22 10.00 Overcast BKN060 OVC070 51.8 33.8 50% 29.77 0.0
03 11:15 SW 12 10.00 Mostly Cloudy BKN070 BKN080 53.6 32 44% 29.77 0.0
03 10:55 SW 13 10.00 Mostly Cloudy BKN090 53.6 32 44% 29.78 0.0
03 10:35 SW 9 10.00 Overcast OVC090 51.8 32 47% 29.78 0.0
03 10:15 SW 9 10.00 Overcast OVC090 51.8 30.2 44% 29.78 0.0
03 09:55 W 9 10.00 Mostly Cloudy FEW070 BKN085 BKN100 50 30.2 47% 47 29.79 0.0
03 09:35 SW 9 10.00 Partly Cloudy FEW080 SCT100 48.2 28.4 46% 45 29.8 0.0
03 09:15 SW 9 10.00 Mostly Cloudy BKN090 44.6 28.4 53% 40 29.8 0.0
03 08:55 SW 9 10.00 Overcast OVC090 42.8 28.4 57% 38 29.8 0.0
03 08:35 SW 12 10.00 Mostly Cloudy BKN090 BKN110 42.8 26.6 53% 37 29.8 0.0
03 08:15 SW 10 10.00 Partly Cloudy SCT100 SCT120 41 28.4 61% 35 29.81 0.0
03 07:55 SW 9 10.00 Partly Cloudy SCT090 39.2 28.4 38.8 25.5 65% 34 29.81 0.0
03 07:35 S 8 10.00 Overcast OVC090 39.2 28.4 65% 34 29.82 0.0
03 07:15 S 5 10.00 Overcast BKN090 OVC100 37.4 26.6 65% 34 29.82 0.0
03 06:55 Vrbl 2 10.00 Overcast BKN100 OVC120 35.6 24.8 65% 29.82 0.0
03 06:35 Vrbl 1 10.00 Mostly Cloudy BKN120 32 26.6 80% 29.83 0.0
03 06:15 SW 3 10.00 Mostly Cloudy BKN120 32 26.6 80% 29.83 0.0
03 05:55 SW 3 10.00 A Few Clouds FEW120 33.8 23 65% 29.84 0.0
03 05:35 S 3 10.00 Partly Cloudy SCT100 32 23 69% 29.85 0.0
03 05:15 S 3 10.00 Mostly Cloudy BKN100 33.8 23 65% 29.86 0.0
03 04:55 SW 6 10.00 Partly Cloudy SCT100 32 21.2 64% 27 29.87 0.0
03 04:35 SW 6 10.00 Mostly Cloudy BKN100 32 23 69% 27 29.87 0.0
03 04:15 SW 6 10.00 Overcast OVC100 30.2 26.6 86% 25 29.88 0.0
03 03:55 SW 6 10.00 Overcast OVC100 26.6 24.8 93% 21 29.88 0.0
03 03:35 SW 3 10.00 Overcast OVC100 26.6 24.8 93% 29.89 0.0
03 03:15 SW 3 10.00 Mostly Cloudy BKN100 26.6 23 86% 29.89 0.0
03 02:55 SW 3 10.00 A Few Clouds FEW100 26.6 24.8 93% 29.89 0.0
03 02:35 SW 3 10.00 Fair CLR 26.6 24.8 93% 29.9 0.0
03 02:15 SW 2 10.00 Fair CLR 26.6 24.8 93% 29.9 0.0
03 01:55 SW 2 10.00 Fair CLR 28.4 24.8 47.3 26.1 86% 29.91 0.0
03 01:35 W 1 10.00 Fair CLR 28.4 24.8 86% 29.91 0.0
03 01:15 NW 1 10.00 Fair CLR 30.2 26.6 86% 29.92 0.0
03 00:55 NW 2 10.00 Fair CLR 30.2 28.4 93% 29.93 0.0
03 00:35 W 2 10.00 Fair CLR 28.4 26.6 93% 29.93 0.0
03 00:15 W 3 10.00 Fair CLR 26.6 24.8 93% 29.93 0.0
02 23:55 W 3 10.00 Fair CLR 28.4 26.6 93% 29.93 0.0
02 23:35 W 2 10.00 Fair CLR 28.4 26.6 93% 29.93 0.0
02 23:15 NW 6 10.00 Fair CLR 28.4 24.8 86% 23 29.93 0.0
02 22:55 Vrbl 2 10.00 Fair CLR 32 28.4 87% 29.93 0.0
02 22:35 N 3 10.00 Fair CLR 35.6 30.2 81% 29.94 0.0
02 22:15 NE 3 10.00 Fair CLR 37.4 33.8 87% 29.94 0.0
02 21:55 NE 5 10.00 Fair CLR 35.6 33.8 93% 32 29.94 0.0
02 21:35 E 7 10.00 Fair CLR 39.2 33.8 81% 35 29.93 0.0
02 21:15 E 8 10.00 Fair CLR 41 30.2 66% 36 29.93 0.0
02 20:55 E 9 10.00 Fair CLR 41 28.4 61% 36 29.92 0.0
02 20:35 SE 3 10.00 Fair CLR 46.4 26.6 46% 29.92 0.0
02 20:15 S 6 10.00 Fair CLR 46.4 26.6 46% 44 29.92 0.0
02 19:55 S 7 10.00 Fair CLR 46.4 24.8 48 44.6 43% 43 29.92 0.0
02 19:35 S 8 10.00 A Few Clouds FEW090 48.2 26.6 43% 45 29.92 0.0
02 19:15 S 8 10.00 Mostly Cloudy BKN090 48.2 24.8 40% 45 29.92 0.0
02 18:55 S 7 10.00 Overcast OVC090 46.4 26.6 46% 43 29.92 0.0
02 18:35 SE 12 10.00 Overcast OVC090 48.2 26.6 43% 44 29.92 0.0
02 18:15 SE 9 10.00 Overcast OVC080 48.2 26.6 43% 45 29.93 0.0
02 17:55 SE 13 10.00 Overcast OVC080 48.2 24.8 40% 43 29.93 0.0
02 17:35 S 8 10.00 Overcast OVC080 48.2 24.8 40% 45 29.93 0.0
02 17:15 S 12 10.00 Overcast OVC090 48.2 24.8 40% 44 29.93 0.0
02 16:55 S 10 10.00 Overcast FEW070 OVC090 46.4 24.8 43% 42 29.94 0.0
02 16:35 S 10 10.00 Overcast OVC080 46.4 24.8 43% 42 29.95 0.0
02 16:15 S 12 10.00 Overcast OVC090 46.4 24.8 43% 42 29.95 0.0
02 15:55 S 14 10.00 Overcast FEW070 OVC080 46.4 24.8 43% 41 29.96 0.0
02 15:35 S 13 10.00 Overcast BKN070 OVC085 46.4 26.6 46% 41 29.97 0.0
02 15:15 S 13 G 18 10.00 Overcast BKN070 OVC080 46.4 24.8 43% 41 29.98 0.0
02 14:55 S 10 G 17 10.00 Overcast OVC070 46.4 24.8 43% 42 29.99 0.0
02 14:35 S 13 G 17 10.00 Overcast BKN070 OVC085 46.4 24.8 43% 41 29.98 0.0
02 14:15 S 13 10.00 Overcast OVC070 46.4 24.8 43% 41 29.99 0.0
02 13:55 S 12 10.00 Overcast BKN065 OVC080 44.6 23 48.2 32 43% 39 29.99 0.0
02 13:35 S 12 10.00 Overcast OVC065 44.6 23 43% 39 29.99 0.0
02 13:15 S 12 10.00 Overcast OVC065 44.6 23 43% 39 30 0.0
02 12:55 SE 10 10.00 Overcast BKN070 OVC075 44.6 23 43% 40 30 0.0
02 12:35 SE 10 10.00 Overcast OVC070 42.8 23 46% 38 30.01 0.0
02 12:15 SE 8 10.00 Overcast OVC070 44.6 17.6 34% 41 30.01 0.0
02 11:55 W 10 10.00 Mostly Cloudy BKN070 46.4 17.6 32% 42 30.01 0.0
02 11:35 N 8 10.00 A Few Clouds FEW070 46.4 17.6 32% 43 30.01 0.0
02 11:15 N 10 G 16 10.00 Fair CLR 46.4 19.4 34% 42 30.02 0.0
02 10:55 NW 10 10.00 Fair CLR 44.6 19.4 37% 40 30.02 0.0
02 10:35 NW 8 10.00 Fair CLR 44.6 19.4 37% 41 30.02 0.0
02 10:15 NW 6 10.00 Fair CLR 42.8 21.2 42% 40 30.02 0.0
02 09:55 NW 9 10.00 Fair CLR 42.8 21.2 42% 38 30.03 0.0
02 09:35 Vrbl 7 10.00 Fair CLR 41 21.2 45% 37 30.03 0.0
02 09:15 W 8 10.00 Fair CLR 39.2 23 52% 34 30.04 0.0
02 08:55 NW 8 10.00 Fair CLR 39.2 21.2 48% 34 30.04 0.0
02 08:35 NW 9 10.00 Fair CLR 37.4 23 56% 31 30.04 0.0
02 08:15 NW 8 10.00 Fair CLR 35.6 24.8 65% 30 30.04 0.0
02 07:55 NW 5 10.00 Fair CLR 33.8 24.8 34.9 28.2 70% 30 30.04 0.0
02 07:35 W 3 10.00 Fair CLR 28.4 24.8 86% 30.04 0.0
02 07:15 W 2 10.00 Partly Cloudy SCT080 28.4 24.8 86% 30.04 0.0
02 06:55 W 3 10.00 Overcast OVC080 28.4 24.8 86% 30.03 0.0
02 06:35 W 3 10.00 Overcast OVC080 28.4 24.8 86% 30.03 0.0
02 06:15 W 3 10.00 Overcast OVC080 30.2 26.6 86% 30.03 0.0
02 05:55 NW 5 10.00 Overcast OVC080 30.2 26.6 86% 26 30.03 0.0
02 05:35 NW 5 10.00 Overcast OVC080 32 26.6 80% 28 30.03 0.0
02 05:15 NW 6 10.00 Overcast OVC070 32 26.6 80% 27 30.03 0.0
02 04:55 NW 3 10.00 Overcast OVC070 32 26.6 80% 30.02 0.0
02 04:35 W 7 10.00 Overcast OVC070 32 26.6 80% 26 30.02 0.0
02 04:15 NW 6 10.00 Overcast OVC070 32 26.6 80% 27 30.02 0.0
02 03:55 W 5 10.00 Overcast OVC070 33.8 26.6 75% 30 30.02 0.0
02 03:35 NW 6 10.00 Overcast OVC070 33.8 26.6 75% 29 30.02 0.0
02 03:15 NW 6 10.00 Overcast OVC070 33.8 26.6 75% 29 30.02 0.0
02 02:55 W 6 10.00 Overcast OVC070 33.8 26.6 75% 29 30.02 0.0
02 02:35 NW 6 10.00 Overcast OVC070 33.8 26.6 75% 29 30.02 0.0
02 02:15 NW 6 10.00 Overcast OVC070 33.8 26.6 75% 29 30.02 0.0
02 01:55 NW 6 10.00 Overcast OVC070 35.6 26.6 38.5 34.7 70% 31 30.02 0.0
02 01:35 NW 6 10.00 Overcast OVC070 35.6 26.6 70% 31 30.02 0.0
02 01:15 NW 6 10.00 Overcast OVC070 35.6 26.6 70% 31 30.02 0.0
02 00:55 NW 7 10.00 Overcast OVC070 35.6 26.6 70% 31 30.02 0.0
02 00:35 NW 7 10.00 Overcast OVC070 35.6 26.6 70% 31 30.02 0.0
02 00:15 NW 6 10.00 Overcast OVC070 35.6 26.6 70% 31 30.02 0.0
Date Time (edt) Wind (mph) Vis. (mi.) Weather Sky Cond. Air Dwpt Max. Min. Relative Humidity Wind Chill (°F) Heat Index (°F) altimeter (in) sea level (mb) 1 hr 3 hr 6 hr
6 hour
Temperature (ºF) Pressure Precipitation (in)